SWA1451 KCRP-KHOU
Flight info
| Callsign | SWA1451 |
|---|---|
| Flight time | 0h 33m |
| Altitude | 21000 |
| Route | CRP BELLR6 |
| Aircraft | B737/M-SDE2E3FGHIRWXY/LB1 |
Departure
| Time | 2026-04-16 05:45 |
|---|---|
| Airport | Corpus Christi International Airport (KCRP) |
Arrival
| Time | 2026-04-16 06:18 |
|---|---|
| Airport | William P. Hobby Airport (KHOU) |
| Time | Latitude | Longitude | Altitude | Speed | Heading |
|---|---|---|---|---|---|
| 2026-04-16 05:06 | 27.77392 | -97.50173 | 46 ft | 0 kts | 278° |
| 2026-04-16 05:34 | 27.77392 | -97.50172 | 46 ft | 1 kts | 278° |
| 2026-04-16 05:34 | 27.77390 | -97.50156 | 46 ft | 2 kts | 279° |
| 2026-04-16 05:35 | 27.77388 | -97.50139 | 45 ft | 2 kts | 278° |
| 2026-04-16 05:35 | 27.77385 | -97.50123 | 45 ft | 2 kts | 279° |
| 2026-04-16 05:35 | 27.77384 | -97.50112 | 46 ft | 1 kts | 279° |
| 2026-04-16 05:35 | 27.77383 | -97.50099 | 46 ft | 1 kts | 265° |
| 2026-04-16 05:36 | 27.77383 | -97.50095 | 46 ft | 0 kts | 267° |
| 2026-04-16 05:38 | 27.77381 | -97.50107 | 46 ft | 1 kts | 240° |
| 2026-04-16 05:38 | 27.77367 | -97.50112 | 46 ft | 2 kts | 175° |
| 2026-04-16 05:38 | 27.77320 | -97.50101 | 46 ft | 9 kts | 172° |
| 2026-04-16 05:38 | 27.77262 | -97.50122 | 46 ft | 8 kts | 232° |
| 2026-04-16 05:39 | 27.77249 | -97.50182 | 46 ft | 7 kts | 269° |
| 2026-04-16 05:39 | 27.77254 | -97.50262 | 46 ft | 11 kts | 273° |
| 2026-04-16 05:39 | 27.77256 | -97.50349 | 46 ft | 10 kts | 270° |
| 2026-04-16 05:39 | 27.77261 | -97.50426 | 46 ft | 9 kts | 274° |
| 2026-04-16 05:40 | 27.77244 | -97.50500 | 46 ft | 12 kts | 239° |
| 2026-04-16 05:40 | 27.77248 | -97.50584 | 47 ft | 12 kts | 317° |
| 2026-04-16 05:40 | 27.77339 | -97.50680 | 47 ft | 25 kts | 317° |
| 2026-04-16 05:40 | 27.77492 | -97.50841 | 47 ft | 31 kts | 315° |
| 2026-04-16 05:41 | 27.77646 | -97.51015 | 47 ft | 30 kts | 315° |
| 2026-04-16 05:41 | 27.77796 | -97.51180 | 47 ft | 29 kts | 317° |
| 2026-04-16 05:41 | 27.77923 | -97.51313 | 48 ft | 15 kts | 317° |
| 2026-04-16 05:41 | 27.77990 | -97.51392 | 48 ft | 10 kts | 294° |
| 2026-04-16 05:42 | 27.77967 | -97.51458 | 48 ft | 9 kts | 224° |
| 2026-04-16 05:42 | 27.77924 | -97.51505 | 48 ft | 7 kts | 224° |
| 2026-04-16 05:42 | 27.77885 | -97.51534 | 48 ft | 5 kts | 167° |
| 2026-04-16 05:42 | 27.77864 | -97.51517 | 48 ft | 0 kts | 137° |
| 2026-04-16 05:44 | 27.77837 | -97.51490 | 48 ft | 11 kts | 137° |
| 2026-04-16 05:44 | 27.77694 | -97.51332 | 47 ft | 58 kts | 135° |
| 2026-04-16 05:44 | 27.77246 | -97.50841 | 47 ft | 119 kts | 136° |
| 2026-04-16 05:45 | 27.76565 | -97.50077 | 247 ft | 146 kts | 137° |
| 2026-04-16 05:45 | 27.75857 | -97.49283 | 938 ft | 143 kts | 133° |
| 2026-04-16 05:45 | 27.75384 | -97.48257 | 1515 ft | 162 kts | 102° |
| 2026-04-16 05:45 | 27.75493 | -97.46876 | 1863 ft | 197 kts | 75° |
| 2026-04-16 05:46 | 27.76249 | -97.45499 | 2502 ft | 215 kts | 56° |
| 2026-04-16 05:46 | 27.77445 | -97.44388 | 3047 ft | 240 kts | 24° |
| 2026-04-16 05:46 | 27.79136 | -97.44128 | 3663 ft | 256 kts | 357° |
| 2026-04-16 05:46 | 27.80946 | -97.44304 | 4312 ft | 268 kts | 357° |
| 2026-04-16 05:47 | 27.82868 | -97.44353 | 4963 ft | 280 kts | 1° |
| 2026-04-16 05:47 | 27.84847 | -97.44353 | 5627 ft | 290 kts | 0° |
| 2026-04-16 05:47 | 27.86866 | -97.44385 | 6484 ft | 292 kts | 359° |
| 2026-04-16 05:47 | 27.88911 | -97.44395 | 7336 ft | 294 kts | 2° |
| 2026-04-16 05:48 | 27.90894 | -97.43999 | 8133 ft | 297 kts | 21° |
| 2026-04-16 05:48 | 27.92682 | -97.42808 | 8924 ft | 300 kts | 37° |
| 2026-04-16 05:48 | 27.94286 | -97.41307 | 9646 ft | 304 kts | 40° |
| 2026-04-16 05:48 | 27.95907 | -97.39716 | 10307 ft | 312 kts | 39° |
| 2026-04-16 05:49 | 27.97622 | -97.38078 | 10697 ft | 329 kts | 38° |
| 2026-04-16 05:49 | 27.99426 | -97.36416 | 11241 ft | 340 kts | 37° |
| 2026-04-16 05:49 | 28.01274 | -97.34747 | 11993 ft | 343 kts | 37° |
| 2026-04-16 05:49 | 28.03156 | -97.33063 | 12708 ft | 347 kts | 37° |
| 2026-04-16 05:50 | 28.05062 | -97.31360 | 13461 ft | 351 kts | 37° |
| 2026-04-16 05:50 | 28.06980 | -97.29645 | 14116 ft | 357 kts | 37° |
| 2026-04-16 05:50 | 28.08936 | -97.27895 | 14882 ft | 360 kts | 37° |
| 2026-04-16 05:50 | 28.10898 | -97.26136 | 15625 ft | 363 kts | 37° |
| 2026-04-16 05:51 | 28.12873 | -97.24365 | 16246 ft | 370 kts | 36° |
| 2026-04-16 05:51 | 28.14889 | -97.22555 | 16933 ft | 374 kts | 36° |
| 2026-04-16 05:51 | 28.16933 | -97.20719 | 17722 ft | 375 kts | 36° |
| 2026-04-16 05:51 | 28.18962 | -97.18893 | 18588 ft | 372 kts | 36° |
| 2026-04-16 05:52 | 28.20988 | -97.17069 | 19344 ft | 372 kts | 36° |
| 2026-04-16 05:52 | 28.23020 | -97.15241 | 20086 ft | 372 kts | 36° |
| 2026-04-16 05:52 | 28.25044 | -97.13418 | 20731 ft | 372 kts | 36° |
| 2026-04-16 05:52 | 28.27127 | -97.11544 | 20985 ft | 384 kts | 37° |
| 2026-04-16 05:53 | 28.29262 | -97.09625 | 21017 ft | 402 kts | 37° |
| 2026-04-16 05:53 | 28.31512 | -97.07603 | 21008 ft | 419 kts | 37° |
| 2026-04-16 05:53 | 28.33829 | -97.05518 | 21022 ft | 435 kts | 37° |
| 2026-04-16 05:53 | 28.36278 | -97.03313 | 21008 ft | 451 kts | 37° |
| 2026-04-16 05:54 | 28.38766 | -97.01068 | 21014 ft | 465 kts | 37° |
| 2026-04-16 05:54 | 28.41336 | -96.98747 | 21012 ft | 478 kts | 37° |
| 2026-04-16 05:54 | 28.43944 | -96.96390 | 21007 ft | 484 kts | 37° |
| 2026-04-16 05:54 | 28.46563 | -96.94018 | 20998 ft | 484 kts | 37° |
| 2026-04-16 05:55 | 28.49218 | -96.91610 | 21009 ft | 481 kts | 37° |
| 2026-04-16 05:55 | 28.51863 | -96.89209 | 21016 ft | 485 kts | 37° |
| 2026-04-16 05:55 | 28.54504 | -96.86813 | 21009 ft | 482 kts | 37° |
| 2026-04-16 05:55 | 28.57116 | -96.84440 | 21020 ft | 486 kts | 37° |
| 2026-04-16 05:56 | 28.59774 | -96.82025 | 21018 ft | 484 kts | 37° |
| 2026-04-16 05:56 | 28.62425 | -96.79614 | 21025 ft | 487 kts | 37° |
| 2026-04-16 05:56 | 28.65074 | -96.77205 | 21035 ft | 486 kts | 37° |
| 2026-04-16 05:56 | 28.67699 | -96.74815 | 21032 ft | 486 kts | 37° |
| 2026-04-16 05:57 | 28.70368 | -96.72385 | 21039 ft | 486 kts | 37° |
| 2026-04-16 05:57 | 28.72998 | -96.69987 | 21035 ft | 487 kts | 37° |
| 2026-04-16 05:57 | 28.75658 | -96.67559 | 21037 ft | 484 kts | 37° |
| 2026-04-16 05:57 | 28.78297 | -96.65150 | 21046 ft | 489 kts | 37° |
| 2026-04-16 05:58 | 28.80959 | -96.62717 | 21026 ft | 485 kts | 37° |
| 2026-04-16 05:58 | 28.83566 | -96.60302 | 21043 ft | 482 kts | 38° |
| 2026-04-16 05:58 | 28.86135 | -96.57770 | 21040 ft | 488 kts | 40° |
| 2026-04-16 05:58 | 28.88649 | -96.55173 | 21004 ft | 483 kts | 41° |
| 2026-04-16 05:59 | 28.91051 | -96.52633 | 21013 ft | 464 kts | 41° |
| 2026-04-16 05:59 | 28.93367 | -96.50161 | 21014 ft | 445 kts | 42° |
| 2026-04-16 05:59 | 28.95595 | -96.47777 | 21013 ft | 426 kts | 41° |
| 2026-04-16 05:59 | 28.97717 | -96.45512 | 21011 ft | 409 kts | 41° |
| 2026-04-16 06:00 | 28.99762 | -96.43334 | 20917 ft | 396 kts | 41° |
| 2026-04-16 06:00 | 29.01774 | -96.41200 | 20572 ft | 391 kts | 41° |
| 2026-04-16 06:00 | 29.03768 | -96.39095 | 20054 ft | 391 kts | 41° |
| 2026-04-16 06:00 | 29.05774 | -96.36983 | 19487 ft | 393 kts | 41° |
| 2026-04-16 06:01 | 29.07779 | -96.34874 | 18880 ft | 395 kts | 41° |
| 2026-04-16 06:01 | 29.09802 | -96.32748 | 18392 ft | 392 kts | 41° |
| 2026-04-16 06:01 | 29.11797 | -96.30651 | 17928 ft | 389 kts | 41° |
| 2026-04-16 06:01 | 29.13793 | -96.28555 | 17430 ft | 387 kts | 41° |
| 2026-04-16 06:02 | 29.17731 | -96.24419 | 16476 ft | 380 kts | 41° |
| 2026-04-16 06:02 | 29.19681 | -96.22370 | 16026 ft | 377 kts | 41° |
| 2026-04-16 06:02 | 29.21599 | -96.20353 | 15563 ft | 374 kts | 41° |
| 2026-04-16 06:03 | 29.23526 | -96.18326 | 15098 ft | 372 kts | 41° |
| 2026-04-16 06:03 | 29.25425 | -96.16327 | 14627 ft | 370 kts | 41° |
| 2026-04-16 06:03 | 29.27309 | -96.14344 | 14166 ft | 367 kts | 41° |
| 2026-04-16 06:03 | 29.29190 | -96.12363 | 13706 ft | 365 kts | 41° |
| 2026-04-16 06:04 | 29.31044 | -96.10408 | 13250 ft | 362 kts | 41° |
| 2026-04-16 06:04 | 29.32803 | -96.08388 | 13019 ft | 352 kts | 47° |
| 2026-04-16 06:04 | 29.34360 | -96.06271 | 13009 ft | 337 kts | 51° |
| 2026-04-16 06:04 | 29.35805 | -96.04177 | 12839 ft | 333 kts | 52° |
| 2026-04-16 06:05 | 29.37215 | -96.02097 | 12573 ft | 329 kts | 52° |
| 2026-04-16 06:05 | 29.38622 | -96.00019 | 12199 ft | 328 kts | 52° |
| 2026-04-16 06:05 | 29.40024 | -95.97959 | 11756 ft | 329 kts | 52° |
| 2026-04-16 06:05 | 29.41440 | -95.95888 | 11336 ft | 328 kts | 52° |
| 2026-04-16 06:06 | 29.42850 | -95.93832 | 10927 ft | 327 kts | 52° |
| 2026-04-16 06:06 | 29.44249 | -95.91798 | 10525 ft | 326 kts | 52° |
| 2026-04-16 06:06 | 29.45656 | -95.89751 | 10114 ft | 324 kts | 52° |
| 2026-04-16 06:06 | 29.47028 | -95.87755 | 9943 ft | 314 kts | 51° |
| 2026-04-16 06:07 | 29.48424 | -95.85901 | 9851 ft | 301 kts | 47° |
| 2026-04-16 06:07 | 29.49864 | -95.84203 | 9744 ft | 293 kts | 45° |
| 2026-04-16 06:07 | 29.51334 | -95.82517 | 9386 ft | 301 kts | 45° |
| 2026-04-16 06:07 | 29.52796 | -95.80812 | 9031 ft | 300 kts | 46° |
| 2026-04-16 06:08 | 29.54229 | -95.79105 | 8673 ft | 299 kts | 46° |
| 2026-04-16 06:08 | 29.55662 | -95.77374 | 8316 ft | 297 kts | 47° |
| 2026-04-16 06:08 | 29.57086 | -95.75646 | 7962 ft | 296 kts | 47° |
| 2026-04-16 06:08 | 29.58485 | -95.73946 | 7609 ft | 294 kts | 47° |
| 2026-04-16 06:09 | 29.59905 | -95.72221 | 7247 ft | 293 kts | 47° |
| 2026-04-16 06:09 | 29.61296 | -95.70529 | 6896 ft | 292 kts | 47° |
| 2026-04-16 06:09 | 29.62705 | -95.68816 | 6535 ft | 290 kts | 47° |
| 2026-04-16 06:09 | 29.64093 | -95.67128 | 6187 ft | 289 kts | 47° |
| 2026-04-16 06:10 | 29.65465 | -95.65459 | 5828 ft | 288 kts | 48° |
| 2026-04-16 06:10 | 29.66836 | -95.63791 | 5475 ft | 286 kts | 48° |
| 2026-04-16 06:10 | 29.68213 | -95.62114 | 5119 ft | 285 kts | 48° |
| 2026-04-16 06:10 | 29.69563 | -95.60470 | 4765 ft | 284 kts | 49° |
| 2026-04-16 06:11 | 29.70924 | -95.58812 | 4384 ft | 283 kts | 49° |
| 2026-04-16 06:11 | 29.72269 | -95.57172 | 4040 ft | 281 kts | 49° |
| 2026-04-16 06:11 | 29.73605 | -95.55544 | 3879 ft | 272 kts | 49° |
| 2026-04-16 06:11 | 29.74865 | -95.54011 | 3810 ft | 260 kts | 49° |
| 2026-04-16 06:12 | 29.76088 | -95.52519 | 3735 ft | 249 kts | 49° |
| 2026-04-16 06:12 | 29.77253 | -95.51096 | 3664 ft | 238 kts | 50° |
| 2026-04-16 06:12 | 29.78364 | -95.49730 | 3589 ft | 228 kts | 52° |
| 2026-04-16 06:12 | 29.79250 | -95.48300 | 3503 ft | 214 kts | 70° |
| 2026-04-16 06:13 | 29.79473 | -95.46689 | 3410 ft | 195 kts | 104° |
| 2026-04-16 06:13 | 29.79033 | -95.45254 | 3227 ft | 189 kts | 123° |
| 2026-04-16 06:13 | 29.78250 | -95.44070 | 3098 ft | 185 kts | 137° |
| 2026-04-16 06:13 | 29.77336 | -95.43034 | 2966 ft | 185 kts | 138° |
| 2026-04-16 06:14 | 29.76432 | -95.41988 | 2830 ft | 184 kts | 137° |
| 2026-04-16 06:14 | 29.75539 | -95.40922 | 2695 ft | 182 kts | 137° |
| 2026-04-16 06:14 | 29.74651 | -95.39866 | 2522 ft | 182 kts | 137° |
| 2026-04-16 06:14 | 29.73785 | -95.38839 | 2353 ft | 180 kts | 137° |
| 2026-04-16 06:15 | 29.72912 | -95.37803 | 2226 ft | 177 kts | 137° |
| 2026-04-16 06:15 | 29.72058 | -95.36793 | 2055 ft | 175 kts | 137° |
| 2026-04-16 06:15 | 29.71234 | -95.35812 | 1809 ft | 164 kts | 137° |
| 2026-04-16 06:15 | 29.70463 | -95.34898 | 1585 ft | 154 kts | 137° |
| 2026-04-16 06:16 | 29.69746 | -95.34043 | 1391 ft | 144 kts | 137° |
| 2026-04-16 06:16 | 29.69075 | -95.33250 | 1227 ft | 131 kts | 137° |
| 2026-04-16 06:16 | 29.68472 | -95.32533 | 1031 ft | 122 kts | 137° |
| 2026-04-16 06:16 | 29.67882 | -95.31837 | 887 ft | 120 kts | 137° |
| 2026-04-16 06:17 | 29.67286 | -95.31133 | 750 ft | 126 kts | 136° |
| 2026-04-16 06:17 | 29.66678 | -95.30415 | 575 ft | 125 kts | 136° |
| 2026-04-16 06:17 | 29.66062 | -95.29681 | 384 ft | 127 kts | 136° |
| 2026-04-16 06:17 | 29.65433 | -95.28951 | 187 ft | 129 kts | 136° |
| 2026-04-16 06:18 | 29.64815 | -95.28219 | 57 ft | 126 kts | 135° |
| 2026-04-16 06:18 | 29.64294 | -95.27605 | 49 ft | 78 kts | 134° |
| 2026-04-16 06:18 | 29.64019 | -95.27281 | 49 ft | 41 kts | 135° |
| 2026-04-16 06:18 | 29.63922 | -95.27060 | 48 ft | 23 kts | 91° |
| 2026-04-16 06:19 | 29.63944 | -95.26975 | 48 ft | 6 kts | 19° |
| 2026-04-16 06:19 | 29.63982 | -95.27001 | 48 ft | 6 kts | 315° |
| 2026-04-16 06:19 | 29.64011 | -95.27035 | 48 ft | 5 kts | 315° |
| 2026-04-16 06:19 | 29.64037 | -95.27065 | 48 ft | 4 kts | 314° |
| 2026-04-16 06:20 | 29.64073 | -95.27106 | 48 ft | 12 kts | 316° |
| 2026-04-16 06:20 | 29.64165 | -95.27212 | 48 ft | 25 kts | 314° |
| 2026-04-16 06:20 | 29.64317 | -95.27393 | 48 ft | 37 kts | 314° |
| 2026-04-16 06:20 | 29.64512 | -95.27630 | 49 ft | 40 kts | 313° |
| 2026-04-16 06:21 | 29.64704 | -95.27859 | 50 ft | 32 kts | 312° |
| 2026-04-16 06:21 | 29.64769 | -95.27914 | 50 ft | 6 kts | 28° |
| 2026-04-16 06:21 | 29.64801 | -95.27876 | 50 ft | 8 kts | 48° |
| 2026-04-16 06:21 | 29.64841 | -95.27826 | 50 ft | 8 kts | 46° |
| 2026-04-16 06:22 | 29.64916 | -95.27748 | 49 ft | 21 kts | 43° |
| 2026-04-16 06:22 | 29.65037 | -95.27647 | 49 ft | 20 kts | 5° |
| 2026-04-16 06:22 | 29.65167 | -95.27663 | 49 ft | 11 kts | 356° |
| 2026-04-16 06:22 | 29.65222 | -95.27660 | 49 ft | 6 kts | 356° |
| 2026-04-16 06:23 | 29.65243 | -95.27662 | 49 ft | 0 kts | 355° |
| 2026-04-16 06:23 | 29.65249 | -95.27663 | 49 ft | 0 kts | 355° |
| 2026-04-16 06:23 | 29.65250 | -95.27663 | 49 ft | 0 kts | 355° |